Almedia, Pennsylvania
Current Conditions -  °F | °C
As of 10:55 AM on Thursday 27 Nov 2014 (Local Time) from KHZL Reporting Station
Overcast Overcast  
Wind Chill: 22°   Ceiling: 700
Heat Index: 30°   Visibility: 10mi
Dew Point: 28°   Wind: 9mph
Humidity: 93%   Direction: 310°NW
Pressure: 29.99"   Gusts: NA
Location:  41.0301°N, 76.4558°W
Report Text: KHZL 271555Z AUTO 31008KT 10SM OVC007 M01/M02 A2999 RMK AO2
Loading
Personal Weather Stations






























Interactive Weather Map New forecast layout! Learn more

10-Day Weather Forecast

Advertisements
Track Severe Weather on mobile